Warning: Javascript must be enabled to use all the features on this page!


Page Loading - Please Wait...

Click to hideNews Bulletins

Peak Streamflow for the Nation

USGS 03234300 Paint Creek at Chillicothe OH

Ross County, Ohio
Hydrologic Unit Code 05060003
Latitude  39°19'13", Longitude  82°58'42" NAD27
Drainage area 1,136  square miles
Contributing drainage area 1,136  square miles
Gage datum 587.25 feet above NAVD88
Output formats
Table
Graph
Tab-separated file
peakfq (watstore) format
Reselect output format
Water
Year
Date Gage
Height
(feet)
Stream-
flow
(cfs)
1986 1985-11-28 17.66 11,7006
1987 1987-04-07 14.87 8,2406
1988 1988-03-04 16.40 10,1006
1989 1989-02-16 17.20 11,7006
1990 1990-05-29 24.67 30,1006
1991 1990-12-31 22.49 24,3006
1992 1992-07-24 15.15 10,2006
1993 1993-03-04 17.57 13,0006
1994 1994-04-11 24.03 28,2006
1995 1995-05-14 20.40 18,9006
1996 1996-05-05 21.31 21,1006
1997 1997-03-02 23.66 27,2006
1998 1998-06-13 17.70 13,7006
1999 1999-02-07 14.18 8,7806
2000 2000-02-19 23.38 26,4006
2001 2001-05-19 23.43 26,5006
2002 2002-05-07 20.11 18,2006
2003 2003-05-11 17.17 12,9006
2004 2004-01-05 23.38 26,4006
2005 2005-01-06 23.48 26,7006
2006 2006-03-13 16.95 12,5006
2007 2006-10-05 24.40 29,3006
2008 2008-03-19 23.07 25,6006
2009 2009-07-31 13.68 7,8706
2010 2010-03-13 19.27 16,4006
2011 2011-05-11 24.82 30,5006
2012 2012-01-27 19.71 17,3006
2013 2013-06-15   8,5002,6
2014 2014-02-21 18.48 14,9006
2015 2015-07-15 18.02 14,2006
2016 2015-12-27 17.26 13,0006
2017 2017-03-01 22.92 21,8006
2018 2018-04-04 20.62 17,5006
2019 2019-02-13 21.84 19,6006
2020 2020-05-19 22.89 21,7006
?
  Peak Streamflow Qualification Codes.